Flugplatz Pegnitz-Zipser Berg

Für EDQZ sind keine METAR/TAF Berichte vorhanden.
Es werden die Flugwettermeldungen vom Flugplatz Grafenwohr Army Air Field in 27 km Entfernung angezeigt.

Bericht für ETIC

vom 22.03. um 21:56 UTC

kein Wind

Sichtweite 10 km oder mehr

keine Wolken

Temperatur 4.4°C

Taupunkt 4.3°C

Luftfeuchtigkeit 99%

Luftdruck 1028 hPa

ETIC 222156Z AUTO 00000KT 9999 CLR 04/04 A3035 RMK AO2 SLP286 T00440043 FZRANO $

Prognose für ETIC

vom 22.03. um 20:00 UTC

Am 22.03. zwischen 20:00 UTC und 02:00 UTC

variable Windrichtung mit 6 kt

Sichtweite 10 km oder mehr

keine Wolken


Zwischen 02:00 und 03:00 UTC übergehend zu

variable Windrichtung mit 6 kt

Sichtweite 6000 m

feuchter Dunst

keine Wolken


Zwischen 08:00 und 09:00 UTC übergehend zu

variable Windrichtung mit 6 kt

Sichtweite 10 km oder mehr

keine signifikanten Wettererscheinungen

gering bewölkt in 3500 ft


Zwischen 15:00 und 16:00 UTC übergehend zu

Wind 12 kt aus 20°

Sichtweite 10 km oder mehr

keine signifikanten Wettererscheinungen

aufgebrochene Bewölkung in 3000 ft

TAF ETIC 222000Z 2220/2402 VRB06KT 9999 SKC QNH3028INS BECMG 2302/2303 VRB06KT 6000 BR SKC QNH3027INS BECMG 2308/2309 VRB06KT 9999 NSW FEW035 QNH3026INS BECMG 2315/2316 02012KT 9999 BKN030 QNH3027INS TX18/2314Z TN02/2305Z
Impressum